Time;durP1;ratioP1;P1;durP2;ratioP2;P2;SDS_P1;SDS_P2;PMS_P1;PMS_P2;Temp;Humidity;BMP_temperature;BMP_pressure;BME280_temperature;BME280_humidity;BME280_pressure;Samples;Min_cycle;Max_cycle;Signal;HPM_P1;HPM_P2
2022/01/13 00:00:31;;;;;;;0.70;0.70;;;;;;;-2.74;84.01;99084.81;29373;215;63009;-71
2022/01/13 00:01:04;;;;;;;0.70;0.70;;;;;;;-2.74;84.20;99076.84;29373;293;63005;-69
2022/01/13 00:01:41;;;;;;;0.70;0.70;;;;;;;-2.74;84.09;99079.50;29373;228;63009;-70
2022/01/13 00:02:12;;;;;;;1.35;1.35;;;;;;;-2.76;83.97;99080.66;29373;221;63005;-69
2022/01/13 00:02:47;;;;;;;0.70;0.70;;;;;;;-2.76;83.85;99076.16;29373;200;63009;-67
2022/01/13 00:03:18;;;;;;;0.70;0.70;;;;;;;-2.75;84.12;99077.84;29373;220;63004;-69
2022/01/13 00:03:50;;;;;;;0.80;0.80;;;;;;;-2.74;84.21;99076.84;29373;220;63009;-68
2022/01/13 00:04:22;;;;;;;0.70;0.70;;;;;;;-2.74;84.61;99079.50;29373;215;63004;-69
2022/01/13 00:04:53;;;;;;;0.93;0.93;;;;;;;-2.74;84.61;99078.66;29371;289;64009;-68
2022/01/13 00:05:28;;;;;;;0.70;0.70;;;;;;;-2.74;84.56;99076.00;29373;219;63004;-67
2022/01/13 00:06:00;;;;;;;2.97;2.87;;;;;;;-2.75;84.75;99077.00;29373;208;63008;-68
2022/01/13 00:06:31;;;;;;;0.70;0.70;;;;;;;-2.75;84.71;99072.53;29373;202;63004;-68
2022/01/13 00:07:04;;;;;;;0.70;0.70;;;;;;;-2.76;84.80;99076.16;29373;252;63009;-69
2022/01/13 00:07:36;;;;;;;1.98;1.87;;;;;;;-2.75;84.88;99072.53;29373;205;63005;-68
2022/01/13 00:08:08;;;;;;;0.70;0.70;;;;;;;-2.73;84.75;99070.53;29373;351;63009;-68
2022/01/13 00:08:39;;;;;;;0.70;0.70;;;;;;;-2.72;84.88;99077.53;29373;222;63005;-70
2022/01/13 00:09:11;;;;;;;1.00;1.00;;;;;;;-2.68;84.79;99075.41;29373;214;63009;-68
2022/01/13 00:09:43;;;;;;;0.70;0.70;;;;;;;-2.68;84.88;99078.06;29373;203;63005;-67
2022/01/13 00:10:14;;;;;;;0.70;0.70;;;;;;;-2.66;85.24;99072.59;29371;247;64009;-68
2022/01/13 00:10:45;;;;;;;0.70;0.70;;;;;;;-2.65;85.15;99079.56;29373;248;63000;-70
2022/01/13 00:11:16;;;;;;;0.70;0.70;;;;;;;-2.65;85.06;99072.44;29371;296;64009;-69
2022/01/13 00:11:49;;;;;;;0.70;0.70;;;;;;;-2.63;84.57;99075.78;29373;219;63004;-70
2022/01/13 00:12:23;;;;;;;0.70;0.70;;;;;;;-2.64;84.35;99070.59;29373;223;63009;-68
2022/01/13 00:13:03;;;;;;;0.80;0.80;;;;;;;-2.64;84.40;99071.44;29373;223;63004;-68
2022/01/13 00:13:47;;;;;;;0.70;0.70;;;;;;;-2.64;84.17;99073.25;29373;292;63008;-69
2022/01/13 00:14:26;;;;;;;0.70;0.70;;;;;;;-2.63;84.31;99069.63;29373;231;63005;-69
2022/01/13 00:15:10;;;;;;;0.70;0.70;;;;;;;-2.60;84.15;99074.62;29373;317;63009;-68
2022/01/13 00:15:48;;;;;;;0.68;0.68;;;;;;;-2.60;84.19;99071.97;29371;286;64005;-70
2022/01/13 00:16:41;;;;;;;0.70;0.70;;;;;;;-2.61;83.86;99064.97;29373;246;63009;-63
2022/01/13 00:17:32;;;;;;;0.70;0.70;;;;;;;-2.60;83.78;99070.16;29373;321;63005;-68
2022/01/13 00:18:16;;;;;;;0.77;0.77;;;;;;;-2.61;83.41;99067.66;29373;279;63020;-69
2022/01/13 00:18:50;;;;;;;1.60;1.60;;;;;;;-2.60;83.50;99075.47;29371;267;64004;-68
2022/01/13 00:19:34;;;;;;;0.75;0.75;;;;;;;-2.60;83.57;99074.62;29373;271;63009;-70
2022/01/13 00:20:28;;;;;;;0.70;0.70;;;;;;;-2.57;83.79;99071.66;29373;202;63004;-68
2022/01/13 00:21:59;;;;;;;0.70;0.70;;;;;;;-2.54;83.74;99068.69;29395;202;63005;-69
2022/01/13 00:23:42;;;;;;;0.70;0.70;;;;;;;-2.51;84.36;99069.22;29400;197;63009;-68
2022/01/13 00:24:14;;;;;;;0.70;0.70;;;;;;;-2.51;84.29;99076.34;29371;207;64004;-69
2022/01/13 00:24:50;;;;;;;0.70;0.70;;;;;;;-2.52;84.41;99072.88;29371;232;64009;-71
2022/01/13 00:25:22;;;;;;;0.70;0.70;;;;;;;-2.51;84.66;99074.53;29373;205;63004;-68
2022/01/13 00:25:56;;;;;;;0.70;0.70;;;;;;;-2.52;84.30;99077.34;29373;218;63009;-70
2022/01/13 00:26:31;;;;;;;0.68;0.68;;;;;;;-2.52;84.17;99072.03;29373;220;63004;-70
2022/01/13 00:27:09;;;;;;;0.70;0.70;;;;;;;-2.52;84.11;99072.03;29373;217;63009;-70
2022/01/13 00:27:47;;;;;;;1.12;1.12;;;;;;;-2.53;84.31;99075.69;29373;307;63004;-69
2022/01/13 00:28:21;;;;;;;0.70;0.70;;;;;;;-2.52;84.13;99078.19;29373;196;63008;-71
2022/01/13 00:28:55;;;;;;;0.70;0.70;;;;;;;-2.52;84.60;99080.84;29373;199;63005;-69
2022/01/13 00:29:31;;;;;;;0.75;0.75;;;;;;;-2.54;84.54;99085.47;29373;198;63009;-70
2022/01/13 00:30:09;;;;;;;0.70;0.70;;;;;;;-2.57;84.47;99082.28;29371;269;64005;-68
2022/01/13 00:30:42;;;;;;;0.70;0.70;;;;;;;-2.58;84.33;99083.28;29373;205;63027;-68
2022/01/13 00:31:16;;;;;;;0.70;0.70;;;;;;;-2.58;84.54;99091.25;29373;373;63005;-69
2022/01/13 00:31:48;;;;;;;0.82;0.82;;;;;;;-2.60;84.27;99090.56;29373;266;63009;-68
2022/01/13 00:32:21;;;;;;;1.42;1.42;;;;;;;-2.57;84.33;99082.28;29373;288;63005;-68
2022/01/13 00:32:53;;;;;;;0.70;0.70;;;;;;;-2.56;84.51;99087.44;29373;202;63009;-68
2022/01/13 00:33:26;;;;;;;1.35;1.35;;;;;;;-2.56;84.41;99087.44;29373;273;63004;-70
2022/01/13 00:34:00;;;;;;;0.70;0.70;;;;;;;-2.57;84.07;99090.25;29371;226;64009;-69
2022/01/13 00:34:32;;;;;;;0.70;0.70;;;;;;;-2.58;84.45;99083.28;29373;197;63004;-70
2022/01/13 00:35:05;;;;;;;0.70;0.70;;;;;;;-2.58;84.23;99093.91;29373;207;63009;-69
2022/01/13 00:35:38;;;;;;;0.70;0.70;;;;;;;-2.59;84.47;99084.28;29374;295;63010;-69
2022/01/13 00:36:10;;;;;;;0.70;0.70;;;;;;;-2.60;84.45;99085.25;29373;213;63018;-61
2022/01/13 00:36:42;;;;;;;0.62;0.62;;;;;;;-2.60;84.58;99095.88;29373;347;63005;-69
2022/01/13 00:37:13;;;;;;;0.80;0.80;;;;;;;-2.60;84.56;99095.88;29373;363;63009;-71
2022/01/13 00:37:44;;;;;;;0.80;0.80;;;;;;;-2.60;84.37;99093.22;29373;272;63005;-62
2022/01/13 00:38:16;;;;;;;0.70;0.70;;;;;;;-2.60;84.50;99086.09;29373;207;63009;-69
2022/01/13 00:38:47;;;;;;;0.70;0.70;;;;;;;-2.61;84.13;99089.75;29373;203;63005;-69
2022/01/13 00:39:19;;;;;;;1.25;1.25;;;;;;;-2.64;84.03;99083.91;29371;199;64009;-69
2022/01/13 00:39:50;;;;;;;0.60;0.60;;;;;;;-2.60;84.32;99090.56;29373;286;63005;-68
2022/01/13 00:40:21;;;;;;;0.70;0.70;;;;;;;-2.61;84.57;99086.25;29373;336;63009;-69
2022/01/13 00:40:56;;;;;;;0.90;0.90;;;;;;;-2.61;84.60;99091.56;29373;297;63004;-68
2022/01/13 00:41:29;;;;;;;0.60;0.60;;;;;;;-2.64;84.52;99089.22;29373;260;63009;-69
2022/01/13 00:42:00;;;;;;;0.70;0.70;;;;;;;-2.65;84.55;99092.84;29373;282;63004;-69
2022/01/13 00:42:33;;;;;;;1.23;1.23;;;;;;;-2.65;84.52;99088.38;29373;203;63009;-69
2022/01/13 00:43:04;;;;;;;0.70;0.70;;;;;;;-2.65;84.57;99092.84;29373;327;63004;-68
2022/01/13 00:43:40;;;;;;;0.70;0.70;;;;;;;-2.65;84.26;99092.84;29371;272;64009;-68
2022/01/13 00:44:19;;;;;;;0.70;0.70;;;;;;;-2.66;84.16;99093.84;29373;276;63005;-68
2022/01/13 00:44:50;;;;;;;0.90;0.90;;;;;;;-2.68;83.85;99099.31;29371;288;64009;-68
2022/01/13 00:45:21;;;;;;;0.70;0.70;;;;;;;-2.71;83.58;99094.31;29373;199;63005;-68
2022/01/13 00:45:53;;;;;;;0.80;0.80;;;;;;;-2.73;83.59;99091.81;29373;202;63009;-69
2022/01/13 00:46:28;;;;;;;0.80;0.80;;;;;;;-2.77;83.84;99095.75;29373;226;63005;-69
2022/01/13 00:47:00;;;;;;;1.45;1.42;;;;;;;-2.77;83.84;99095.75;29373;199;63009;-69
2022/01/13 00:47:35;;;;;;;0.80;0.80;;;;;;;-2.75;84.00;99096.44;29373;202;63008;-69
2022/01/13 00:48:07;;;;;;;4.22;3.45;;;;;;;-2.71;83.82;99095.13;29373;209;63009;-68
2022/01/13 00:48:41;;;;;;;0.70;0.70;;;;;;;-2.67;83.76;99094.84;29373;204;63004;-69
2022/01/13 00:49:14;;;;;;;0.70;0.70;;;;;;;-2.63;83.83;99101.50;29371;197;64009;-69
2022/01/13 00:49:45;;;;;;;0.70;0.70;;;;;;;-2.62;84.01;99103.19;29371;198;64004;-68
2022/01/13 00:50:18;;;;;;;0.70;0.70;;;;;;;-2.61;84.03;99104.84;29373;344;63008;-69
2022/01/13 00:50:49;;;;;;;0.70;0.70;;;;;;;-2.60;83.77;99103.88;29373;261;63004;-68
2022/01/13 00:51:22;;;;;;;0.70;0.70;;;;;;;-2.61;83.96;99105.69;29373;205;63009;-69
2022/01/13 00:51:54;;;;;;;1.50;1.50;;;;;;;-2.59;83.70;99103.72;29373;255;63005;-68
2022/01/13 00:52:26;;;;;;;0.70;0.70;;;;;;;-2.56;83.80;99107.88;29373;209;63009;-70
2022/01/13 00:52:58;;;;;;;0.70;0.70;;;;;;;-2.55;83.81;99110.38;29373;203;63005;-69
2022/01/13 00:53:29;;;;;;;0.70;0.70;;;;;;;-2.54;83.93;99106.75;29373;367;63009;-70
2022/01/13 00:54:04;;;;;;;0.70;0.70;;;;;;;-2.51;83.77;99113.56;29371;235;64005;-69
2022/01/13 00:54:39;;;;;;;1.42;1.42;;;;;;;-2.50;83.68;99104.59;29373;273;63009;-69
2022/01/13 00:55:15;;;;;;;0.70;0.70;;;;;;;-2.46;83.87;99108.63;29373;202;63005;-69
2022/01/13 00:55:58;;;;;;;0.70;0.70;;;;;;;-2.43;83.46;99110.97;29373;273;63009;-69
2022/01/13 00:56:30;;;;;;;0.70;0.70;;;;;;;-2.42;83.51;99110.78;29373;249;63004;-69
2022/01/13 00:57:02;;;;;;;0.70;0.70;;;;;;;-2.40;83.28;99110.63;29373;362;63009;-69
2022/01/13 00:57:33;;;;;;;0.70;0.70;;;;;;;-2.38;83.18;99113.97;29373;205;63004;-63
2022/01/13 00:58:04;;;;;;;0.70;0.70;;;;;;;-2.37;83.44;99110.31;29373;199;63008;-69
2022/01/13 00:58:36;;;;;;;0.70;0.70;;;;;;;-2.36;83.35;99112.81;29373;208;63004;-69
2022/01/13 00:59:12;;;;;;;0.70;0.70;;;;;;;-2.33;83.22;99109.03;29371;258;64009;-68
2022/01/13 00:59:46;;;;;;;0.70;0.70;;;;;;;-2.32;82.83;99110.69;29371;324;64005;-69
2022/01/13 01:00:18;;;;;;;0.70;0.70;;;;;;;-2.30;82.65;99108.72;29373;222;63009;-69
2022/01/13 01:00:50;;;;;;;16.27;9.23;;;;;;;-2.29;82.99;99115.69;29366;369;65017;-69
2022/01/13 01:01:21;;;;;;;0.70;0.70;;;;;;;-2.29;82.73;99110.38;29373;203;63009;-68
2022/01/13 01:01:54;;;;;;;0.70;0.70;;;;;;;-2.29;82.76;99113.03;29373;225;63005;-69
2022/01/13 01:02:27;;;;;;;0.70;0.70;;;;;;;-2.31;83.00;99109.69;29373;197;63009;-69
2022/01/13 01:02:58;;;;;;;0.70;0.70;;;;;;;-2.30;83.21;99114.03;29373;298;63004;-69
2022/01/13 01:03:32;;;;;;;0.70;0.70;;;;;;;-2.32;82.95;99110.69;29373;253;63009;-70
2022/01/13 01:04:04;;;;;;;0.70;0.70;;;;;;;-2.32;83.17;99110.69;29373;368;63004;-69
2022/01/13 01:04:37;;;;;;;0.70;0.70;;;;;;;-2.32;82.91;99107.19;29373;204;63009;-68
2022/01/13 01:05:10;;;;;;;0.70;0.70;;;;;;;-2.31;83.21;99111.53;29371;274;64004;-69
2022/01/13 01:05:41;;;;;;;0.70;0.70;;;;;;;-2.32;83.23;99108.03;29373;207;63008;-68
2022/01/13 01:06:16;;;;;;;0.70;0.70;;;;;;;-2.30;83.25;99110.53;29371;227;64005;-70
2022/01/13 01:06:48;;;;;;;0.60;0.60;;;;;;;-2.31;83.42;99107.03;29373;198;63009;-69
2022/01/13 01:07:19;;;;;;;0.70;0.70;;;;;;;-2.34;82.99;99110.00;29373;213;63005;-68
2022/01/13 01:07:50;;;;;;;0.75;0.75;;;;;;;-2.36;83.26;99110.16;29373;346;63009;-69
2022/01/13 01:08:23;;;;;;;0.60;0.60;;;;;;;-2.35;83.41;99105.69;29373;302;63005;-68
2022/01/13 01:08:54;;;;;;;0.70;0.70;;;;;;;-2.35;83.14;99108.34;29373;234;63009;-68
2022/01/13 01:10:21;;;;;;;0.70;0.70;;;;;;;-2.33;83.46;99109.03;29371;215;64009;-69
2022/01/13 01:10:55;;;;;;;1.08;1.08;;;;;;;-2.34;83.51;99112.66;29373;198;63004;-68
2022/01/13 01:11:27;;;;;;;0.70;0.70;;;;;;;-2.34;83.51;99107.34;29373;311;63009;-68
2022/01/13 01:11:58;;;;;;;0.68;0.68;;;;;;;-2.33;83.45;99114.34;29373;234;63004;-70
2022/01/13 01:12:32;;;;;;;0.70;0.70;;;;;;;-2.32;83.65;99113.34;29373;307;63008;-69
2022/01/13 01:13:16;;;;;;;0.70;0.70;;;;;;;-2.33;83.50;99116.16;29373;365;63004;-69
2022/01/13 01:13:50;;;;;;;0.60;0.60;;;;;;;-2.34;83.54;99117.16;29373;208;63009;-69
2022/01/13 01:14:24;;;;;;;0.70;0.70;;;;;;;-2.33;83.67;99122.31;29373;209;63005;-70
2022/01/13 01:14:59;;;;;;;0.70;0.70;;;;;;;-2.32;83.40;99123.97;29373;278;63009;-70
2022/01/13 01:15:34;;;;;;;0.70;0.70;;;;;;;-2.31;83.76;99128.31;29371;218;64005;-70
2022/01/13 01:16:09;;;;;;;0.70;0.70;;;;;;;-2.30;83.46;99119.34;29373;196;63009;-70
2022/01/13 01:16:41;;;;;;;0.70;0.70;;;;;;;-2.28;83.87;99125.34;29371;372;64005;-61
2022/01/13 01:17:17;;;;;;;0.70;0.70;;;;;;;-2.28;83.47;99122.69;29373;371;63009;-69
2022/01/13 01:17:57;;;;;;;0.70;0.70;;;;;;;-2.29;83.72;99122.84;29373;220;63004;-69
2022/01/13 01:19:26;;;;;;;0.60;0.60;;;;;;;-2.35;83.45;99118.97;29373;249;63004;-68
2022/01/13 01:20:00;;;;;;;0.70;0.70;;;;;;;-2.36;83.55;99119.97;29371;215;64008;-70
2022/01/13 01:20:46;;;;;;;0.70;0.70;;;;;;;-2.38;84.17;99112.16;29373;199;63005;-70
2022/01/13 01:23:21;;;;;;;0.70;0.70;;;;;;;-2.43;84.89;99121.59;29373;212;63009;-70
2022/01/13 01:24:16;;;;;;;0.70;0.70;;;;;;;-2.45;84.67;99120.94;29373;207;63005;-70
2022/01/13 01:25:41;;;;;;;0.70;0.70;;;;;;;-2.51;84.84;99121.53;29371;291;64004;-69
2022/01/13 01:26:28;;;;;;;0.70;0.70;;;;;;;-2.49;84.71;99130.19;29373;223;63009;-69
2022/01/13 01:27:08;;;;;;;1.45;1.45;;;;;;;-2.49;84.83;99124.87;29373;218;63004;-69
2022/01/13 01:27:45;;;;;;;0.70;0.70;;;;;;;-2.50;84.77;99126.72;29371;283;64008;-69
2022/01/13 01:28:25;;;;;;;0.70;0.70;;;;;;;-2.46;84.33;99132.53;29373;226;63005;-69
2022/01/13 01:29:07;;;;;;;0.70;0.70;;;;;;;-2.47;84.64;99133.53;29373;198;63009;-69
2022/01/13 01:29:43;;;;;;;0.70;0.70;;;;;;;-2.48;84.81;99137.19;29373;220;63005;-70
2022/01/13 01:31:15;;;;;;;0.60;0.60;;;;;;;-2.50;84.80;99133.84;29373;236;63005;-69
2022/01/13 01:31:53;;;;;;;0.70;0.70;;;;;;;-2.50;84.52;99128.53;29373;275;63009;-69
2022/01/13 01:32:28;;;;;;;0.70;0.70;;;;;;;-2.50;84.52;99132.03;29373;203;63004;-68
2022/01/13 01:33:00;;;;;;;0.60;0.60;;;;;;;-2.47;84.71;99133.53;29371;203;64026;-69
2022/01/13 01:33:35;;;;;;;0.80;0.80;;;;;;;-2.46;84.85;99121.91;29373;202;63004;-70
2022/01/13 01:35:12;;;;;;;0.68;0.68;;;;;;;-2.45;85.30;99128.91;29373;228;63004;-68
2022/01/13 01:35:44;;;;;;;0.65;0.65;;;;;;;-2.47;85.34;99128.22;29373;222;63009;-69
2022/01/13 01:36:16;;;;;;;0.70;0.70;;;;;;;-2.47;85.10;99128.22;29373;336;63005;-68
2022/01/13 01:36:52;;;;;;;0.68;0.68;;;;;;;-2.47;85.20;99128.22;29373;372;63009;-69
2022/01/13 01:37:27;;;;;;;0.60;0.60;;;;;;;-2.45;85.38;99131.56;29371;214;64005;-67
2022/01/13 01:38:01;;;;;;;0.60;0.60;;;;;;;-2.43;85.19;99129.59;29371;224;64009;-70
2022/01/13 01:38:34;;;;;;;0.70;0.70;;;;;;;-2.44;85.14;99135.88;29373;219;63005;-68
2022/01/13 01:39:08;;;;;;;0.80;0.80;;;;;;;-2.43;85.41;99132.25;29373;197;63009;-68
2022/01/13 01:39:40;;;;;;;0.70;0.70;;;;;;;-2.42;85.02;99125.91;29373;249;63005;-71
2022/01/13 01:40:14;;;;;;;0.75;0.75;;;;;;;-2.40;84.97;99134.56;29373;202;63009;-68
2022/01/13 01:40:45;;;;;;;0.70;0.70;;;;;;;-2.40;84.96;99123.94;29373;257;63004;-69
2022/01/13 01:41:18;;;;;;;0.85;0.85;;;;;;;-2.38;85.12;99128.09;29373;244;63009;-68
2022/01/13 01:41:56;;;;;;;0.70;0.70;;;;;;;-2.36;85.09;99122.63;29373;238;63004;-68
2022/01/13 01:42:28;;;;;;;0.70;0.70;;;;;;;-2.35;85.40;99126.94;29373;324;63008;-69
2022/01/13 01:42:59;;;;;;;0.70;0.70;;;;;;;-2.36;85.68;99131.44;29371;275;64004;-71
2022/01/13 01:43:30;;;;;;;0.65;0.65;;;;;;;-2.35;85.98;99124.28;29373;213;63009;-70
2022/01/13 01:44:09;;;;;;;0.70;0.70;;;;;;;-2.35;85.96;99126.94;29373;237;63005;-70
2022/01/13 01:44:44;;;;;;;0.70;0.70;;;;;;;-2.37;86.25;99131.59;29373;199;63009;-70
2022/01/13 01:45:16;;;;;;;0.88;0.88;;;;;;;-2.37;86.50;99128.94;29373;219;63005;-69
2022/01/13 01:45:49;;;;;;;0.70;0.70;;;;;;;-2.39;86.36;99131.75;29373;306;63009;-68
2022/01/13 01:46:21;;;;;;;0.70;0.70;;;;;;;-2.40;86.61;99127.41;29371;218;64005;-69
2022/01/13 01:46:52;;;;;;;0.70;0.70;;;;;;;-2.41;86.36;99125.75;29373;235;63009;-70
2022/01/13 01:47:27;;;;;;;0.82;0.82;;;;;;;-2.39;86.51;99130.91;29373;219;63004;-68
2022/01/13 01:48:03;;;;;;;0.70;0.70;;;;;;;-2.39;86.35;99134.41;29373;245;63009;-70
2022/01/13 01:48:36;;;;;;;0.70;0.70;;;;;;;-2.39;86.00;99129.09;29373;387;63004;-69
2022/01/13 01:49:16;;;;;;;0.70;0.70;;;;;;;-2.39;85.79;99128.25;29373;352;63021;-69
2022/01/13 01:49:55;;;;;;;0.70;0.70;;;;;;;-2.40;85.96;99130.06;29373;284;63004;-70
2022/01/13 01:50:32;;;;;;;0.70;0.70;;;;;;;-2.39;86.13;99121.09;29373;245;63008;-61
2022/01/13 01:51:04;;;;;;;0.70;0.70;;;;;;;-2.39;85.96;99120.28;29373;345;63005;-71
2022/01/13 01:51:35;;;;;;;0.70;0.70;;;;;;;-2.40;85.96;99126.59;29371;211;64009;-69
2022/01/13 01:52:08;;;;;;;0.70;0.70;;;;;;;-2.39;86.14;99114.97;29373;203;63005;-69
2022/01/13 01:52:40;;;;;;;1.33;1.33;;;;;;;-2.38;85.81;99127.25;29373;209;63009;-68
2022/01/13 01:53:11;;;;;;;0.70;0.70;;;;;;;-2.37;85.70;99118.28;29373;283;63005;-69
2022/01/13 01:53:42;;;;;;;0.70;0.70;;;;;;;-2.35;85.82;99124.28;29373;331;63009;-70
2022/01/13 01:54:14;;;;;;;0.70;0.70;;;;;;;-2.35;85.69;99121.62;29373;231;63005;-71
2022/01/13 01:54:46;;;;;;;0.85;0.85;;;;;;;-2.34;85.61;99122.47;29373;324;63009;-69
2022/01/13 01:55:20;;;;;;;5.55;5.35;;;;;;;-2.34;85.62;99128.62;29373;203;63004;-70
2022/01/13 01:55:55;;;;;;;0.70;0.70;;;;;;;-2.33;85.44;99129.47;29373;217;63009;-71
2022/01/13 01:56:27;;;;;;;3.10;2.97;;;;;;;-2.34;85.92;99120.66;29373;247;63004;-69
2022/01/13 01:57:00;;;;;;;0.70;0.70;;;;;;;-2.33;85.76;99124.13;29371;202;64009;-69
2022/01/13 01:57:31;;;;;;;0.70;0.70;;;;;;;-2.32;85.82;99123.97;29371;204;64004;-68
2022/01/13 01:58:05;;;;;;;3.10;3.00;;;;;;;-2.31;85.55;99127.47;29373;208;63008;-69
2022/01/13 01:58:38;;;;;;;0.70;0.70;;;;;;;-2.31;85.78;99124.81;29373;200;63005;-70
2022/01/13 01:59:15;;;;;;;3.17;3.05;;;;;;;-2.31;85.69;99123.00;29373;315;63009;-71
2022/01/13 01:59:47;;;;;;;0.70;0.70;;;;;;;-2.30;85.51;99124.66;29373;203;63005;-70
2022/01/13 02:00:21;;;;;;;0.60;0.60;;;;;;;-2.28;85.43;99122.69;29373;204;63009;-69
2022/01/13 02:00:54;;;;;;;0.60;0.60;;;;;;;-2.26;84.94;99126.03;29373;213;63005;-63
2022/01/13 02:01:28;;;;;;;0.60;0.60;;;;;;;-2.25;84.74;99127.69;29371;218;64009;-69
2022/01/13 02:02:00;;;;;;;0.60;0.60;;;;;;;-2.26;84.86;99126.03;29373;284;63005;-69
2022/01/13 02:02:31;;;;;;;2.00;1.90;;;;;;;-2.26;84.97;99128.69;29373;215;63009;-69
2022/01/13 02:03:07;;;;;;;0.60;0.60;;;;;;;-2.24;85.00;99126.69;29373;365;63004;-69
2022/01/13 02:03:38;;;;;;;0.70;0.70;;;;;;;-2.24;85.08;99129.34;29373;303;63017;-69
2022/01/13 02:04:10;;;;;;;0.98;0.98;;;;;;;-2.23;84.82;99131.03;29373;213;63004;-70
2022/01/13 02:04:44;;;;;;;0.70;0.70;;;;;;;-2.22;84.78;99132.69;29373;226;63012;-71
2022/01/13 02:05:16;;;;;;;0.60;0.60;;;;;;;-2.20;84.74;99128.06;29373;207;63004;-70
2022/01/13 02:05:48;;;;;;;0.70;0.70;;;;;;;-2.21;84.61;99126.38;29373;277;63009;-71
2022/01/13 02:06:20;;;;;;;0.70;0.70;;;;;;;-2.21;84.63;99123.72;29373;262;63005;-69
2022/01/13 02:06:54;;;;;;;0.62;0.62;;;;;;;-2.19;84.60;99124.41;29371;328;64009;-62
2022/01/13 02:07:26;;;;;;;0.95;0.95;;;;;;;-2.19;84.60;99121.75;29373;208;63005;-62
2022/01/13 02:08:01;;;;;;;0.60;0.60;;;;;;;-2.17;84.53;99122.44;29373;255;63016;-63
2022/01/13 02:08:32;;;;;;;0.60;0.60;;;;;;;-2.15;84.77;99122.28;29373;218;63005;-70
2022/01/13 02:09:07;;;;;;;0.60;0.60;;;;;;;-2.14;84.46;99119.44;29373;311;63009;-62
2022/01/13 02:09:41;;;;;;;1.73;1.73;;;;;;;-2.13;84.48;99126.44;29373;370;63005;-71
2022/01/13 02:10:14;;;;;;;0.60;0.60;;;;;;;-2.13;84.21;99121.12;29371;232;64009;-69
2022/01/13 02:10:46;;;;;;;1.23;1.23;;;;;;;-2.11;84.12;99123.63;29373;208;63004;-70
2022/01/13 02:11:18;;;;;;;0.60;0.60;;;;;;;-2.12;83.58;99122.78;29373;197;63009;-69
2022/01/13 02:11:54;;;;;;;0.60;0.60;;;;;;;-2.12;83.77;99117.47;29373;223;63016;-70
2022/01/13 02:12:35;;;;;;;0.60;0.60;;;;;;;-2.11;83.35;99118.31;29373;196;63009;-69
2022/01/13 02:13:11;;;;;;;0.70;0.70;;;;;;;-2.13;83.44;99123.78;29395;260;63009;-68
2022/01/13 02:13:49;;;;;;;0.70;0.70;;;;;;;-2.13;83.27;99120.28;29395;202;63009;-69
2022/01/13 02:16:06;;;;;;;0.60;0.60;;;;;;;-2.16;83.19;99113.47;29372;337;64005;-62
2022/01/13 02:16:45;;;;;;;0.70;0.70;;;;;;;-2.19;83.12;99116.44;29373;248;63009;-70
2022/01/13 02:17:26;;;;;;;0.70;0.70;;;;;;;-2.20;83.46;99112.09;29373;202;63004;-70
2022/01/13 02:17:59;;;;;;;0.75;0.75;;;;;;;-2.22;83.37;99114.09;29395;219;63009;-61
2022/01/13 02:18:38;;;;;;;0.70;0.70;;;;;;;-2.23;83.30;99108.91;29395;268;63004;-62
2022/01/13 02:19:15;;;;;;;0.70;0.70;;;;;;;-2.25;83.11;99117.06;29373;295;63009;-69
2022/01/13 02:19:57;;;;;;;;;;;;;;;;;;;;;
2022/01/13 02:20:55;;;;;;;0.90;0.90;;;;;;;-2.25;83.33;99110.91;29373;325;63008;-69
2022/01/13 02:21:27;;;;;;;31.98;16.98;;;;;;;-2.23;83.49;99101.78;29361;203;66005;-71
2022/01/13 02:21:59;;;;;;;0.62;0.62;;;;;;;-2.23;83.12;99104.44;29373;217;63026;-62
2022/01/13 02:22:31;;;;;;;0.60;0.60;;;;;;;-2.23;83.18;99104.44;29373;334;63005;-71
2022/01/13 02:23:03;;;;;;;2.65;2.55;;;;;;;-2.22;83.26;99095.47;29373;271;63009;-70
2022/01/13 02:23:43;;;;;;;0.70;0.70;;;;;;;-2.21;83.09;99102.44;29371;218;64005;-62
2022/01/13 02:24:14;;;;;;;10.55;10.15;;;;;;;-2.21;82.97;99102.44;29368;214;65004;-63
2022/01/13 02:24:46;;;;;;;0.70;0.70;;;;;;;-2.21;83.11;99093.63;29373;215;63004;-70
2022/01/13 02:25:18;;;;;;;2.40;2.30;;;;;;;-2.21;82.99;99090.97;29371;208;64009;-70
2022/01/13 02:25:49;;;;;;;1.08;1.08;;;;;;;-2.20;82.82;99098.81;29371;223;64004;-62
2022/01/13 02:26:21;;;;;;;0.60;0.60;;;;;;;-2.22;82.80;99097.28;29373;232;63009;-69
2022/01/13 02:26:52;;;;;;;0.70;0.70;;;;;;;-2.25;82.98;99095.78;29373;277;63004;-69
2022/01/13 02:27:24;;;;;;;0.70;0.70;;;;;;;-2.25;83.11;99095.78;29373;206;63008;-70
2022/01/13 02:27:55;;;;;;;0.70;0.70;;;;;;;-2.24;82.90;99097.44;29373;235;63005;-69
2022/01/13 02:28:29;;;;;;;0.70;0.70;;;;;;;-2.24;82.77;99086.81;29371;226;64009;-62
2022/01/13 02:29:00;;;;;;;0.70;0.70;;;;;;;-2.24;82.72;99092.13;29371;203;64005;-68
2022/01/13 02:29:33;;;;;;;0.60;0.60;;;;;;;-2.25;82.85;99085.13;29373;241;63009;-68
2022/01/13 02:30:05;;;;;;;0.60;0.60;;;;;;;-2.26;82.70;99094.09;29373;310;63009;-69
2022/01/13 02:30:36;;;;;;;0.73;0.73;;;;;;;-2.27;83.09;99087.13;29373;234;63009;-70
2022/01/13 02:31:11;;;;;;;0.60;0.60;;;;;;;-2.29;82.77;99091.75;29373;211;63010;-69
2022/01/13 02:31:43;;;;;;;1.45;1.45;;;;;;;-2.32;82.88;99088.59;29373;343;63009;-69
2022/01/13 02:32:17;;;;;;;0.70;0.70;;;;;;;-2.30;82.96;99082.12;29373;220;63004;-69
2022/01/13 02:32:48;;;;;;;0.60;0.60;;;;;;;-2.30;83.08;99082.12;29373;231;63009;-67
2022/01/13 02:33:19;;;;;;;0.70;0.70;;;;;;;-2.32;83.52;99086.75;29371;239;64004;-63
2022/01/13 02:33:51;;;;;;;0.70;0.70;;;;;;;-2.32;83.33;99084.09;29373;219;63009;-68
2022/01/13 02:34:23;;;;;;;0.70;0.70;;;;;;;-2.32;83.30;99084.09;29373;293;63004;-62
2022/01/13 02:34:54;;;;;;;0.75;0.75;;;;;;;-2.33;83.73;99086.91;29373;197;63008;-61
2022/01/13 02:35:34;;;;;;;0.70;0.70;;;;;;;-2.33;83.57;99084.25;29373;282;63005;-68
2022/01/13 02:36:08;;;;;;;0.70;0.70;;;;;;;-2.33;83.77;99081.59;29373;204;63009;-70
2022/01/13 02:36:42;;;;;;;0.70;0.70;;;;;;;-2.32;83.67;99088.59;29373;209;63005;-69
2022/01/13 02:37:16;;;;;;;0.70;0.70;;;;;;;-2.29;83.38;99083.78;29373;341;63009;-69
2022/01/13 02:37:48;;;;;;;0.60;0.60;;;;;;;-2.27;83.01;99086.28;29373;298;63005;-68
2022/01/13 02:38:21;;;;;;;0.60;0.60;;;;;;;-2.28;83.14;99080.13;29371;202;64009;-69
2022/01/13 02:38:54;;;;;;;0.70;0.70;;;;;;;-2.29;83.66;99081.13;29373;197;63005;-69
2022/01/13 02:39:27;;;;;;;0.70;0.70;;;;;;;-2.30;83.59;99081.28;29373;224;63009;-68
2022/01/13 02:39:59;;;;;;;0.70;0.70;;;;;;;-2.32;83.69;99080.59;29373;314;63004;-68
2022/01/13 02:40:34;;;;;;;3.28;3.17;;;;;;;-2.34;83.55;99080.75;29373;238;63009;-68
2022/01/13 02:41:05;;;;;;;0.60;0.60;;;;;;;-2.34;83.52;99086.06;29373;288;63004;-62
2022/01/13 02:41:38;;;;;;;0.70;0.70;;;;;;;-2.37;83.87;99078.41;29373;233;63009;-62
2022/01/13 02:42:19;;;;;;;0.80;0.80;;;;;;;-2.38;83.71;99084.72;29373;210;63009;-62
2022/01/13 02:42:50;;;;;;;0.80;0.80;;;;;;;-2.39;83.73;99083.06;29373;215;63009;-62
2022/01/13 02:43:24;;;;;;;0.70;0.70;;;;;;;-2.39;83.92;99081.22;29371;381;64005;-69
2022/01/13 02:43:58;;;;;;;0.70;0.70;;;;;;;-2.38;84.13;99079.41;29371;197;64009;-69
2022/01/13 02:44:31;;;;;;;0.90;0.90;;;;;;;-2.39;84.42;99083.88;29371;302;64005;-62
2022/01/13 02:45:06;;;;;;;0.70;0.70;;;;;;;-2.40;84.20;99081.38;29371;265;64009;-68
2022/01/13 02:45:51;;;;;;;0.90;0.90;;;;;;;-2.40;84.17;99084.03;29371;233;64005;-70
2022/01/13 02:47:59;;;;;;;0.70;0.70;;;;;;;-2.39;83.97;99085.72;29373;306;63004;-70
2022/01/13 02:48:30;;;;;;;0.60;0.60;;;;;;;-2.36;83.84;99080.09;29373;218;63009;-69
2022/01/13 02:49:05;;;;;;;0.70;0.70;;;;;;;-2.36;83.97;99090.72;29374;344;63004;-61
2022/01/13 02:49:37;;;;;;;0.70;0.70;;;;;;;-2.37;83.88;99083.72;29373;197;64020;-61
2022/01/13 02:50:11;;;;;;;0.70;0.70;;;;;;;-2.37;83.70;99087.22;29374;196;63015;-70
2022/01/13 02:50:42;;;;;;;0.70;0.70;;;;;;;-2.38;83.69;99082.91;29372;228;64009;-69
2022/01/13 02:51:14;;;;;;;0.60;0.60;;;;;;;-2.40;83.69;99086.69;29374;218;63005;-68
2022/01/13 02:51:50;;;;;;;0.70;0.70;;;;;;;-2.40;83.85;99084.03;29374;225;63009;-68
2022/01/13 02:52:23;;;;;;;0.88;0.88;;;;;;;-2.42;84.00;99083.38;29374;210;63005;-69
2022/01/13 02:52:58;;;;;;;0.70;0.70;;;;;;;-2.43;83.91;99082.56;29374;199;63009;-70
2022/01/13 02:53:29;;;;;;;0.65;0.65;;;;;;;-2.43;83.98;99089.69;29374;236;63005;-68
2022/01/13 02:54:01;;;;;;;0.70;0.70;;;;;;;-2.45;84.32;99078.37;29374;203;63009;-62
2022/01/13 02:54:32;;;;;;;0.93;0.93;;;;;;;-2.44;84.30;99085.38;29374;202;63017;-70
2022/01/13 02:55:06;;;;;;;0.70;0.70;;;;;;;-2.45;84.36;99079.22;29374;222;63009;-69
2022/01/13 02:55:37;;;;;;;0.70;0.70;;;;;;;-2.42;84.43;99075.38;29372;209;64004;-70